Time;durP1;ratioP1;P1;durP2;ratioP2;P2;SDS_P1;SDS_P2;PMS_P1;PMS_P2;Temp;Humidity;BMP_temperature;BMP_pressure;BME280_temperature;BME280_humidity;BME280_pressure;Samples;Min_cycle;Max_cycle;Signal;HPM_P1;HPM_P2
2020/12/08 00:00:10;;;;;;;2.53;2.23;;;2.10;99.90;;;;;;5107975;28;20208;-78
2020/12/08 00:02:36;;;;;;;3.97;2.60;;;2.10;99.90;;;;;;5106691;28;20183;-77
2020/12/08 00:05:03;;;;;;;2.87;2.13;;;2.10;99.90;;;;;;5105885;28;20200;-78
2020/12/08 00:07:29;;;;;;;2.70;2.33;;;2.00;99.90;;;;;;5106103;28;20188;-77
2020/12/08 00:09:55;;;;;;;2.17;1.90;;;2.00;99.90;;;;;;5106066;28;20227;-79
2020/12/08 00:12:25;;;;;;;3.23;2.10;;;2.00;99.90;;;;;;5105834;28;20206;-79
2020/12/08 00:14:51;;;;;;;2.60;2.40;;;2.00;99.90;;;;;;5105497;28;20192;-77
2020/12/08 00:17:16;;;;;;;2.83;2.60;;;2.00;99.90;;;;;;5105901;28;20222;-78
2020/12/08 00:19:42;;;;;;;2.90;2.30;;;2.10;99.90;;;;;;5105415;28;20334;-78
2020/12/08 00:22:08;;;;;;;3.00;2.23;;;2.20;99.90;;;;;;5105773;28;20475;-78
2020/12/08 00:24:33;;;;;;;3.50;2.63;;;2.20;99.90;;;;;;5107199;28;20184;-78
2020/12/08 00:26:59;;;;;;;2.50;2.30;;;2.20;99.90;;;;;;5107051;28;20195;-79
2020/12/08 00:29:24;;;;;;;3.67;2.20;;;2.10;99.90;;;;;;5105273;28;20238;-77
2020/12/08 00:31:50;;;;;;;3.50;2.50;;;2.20;99.90;;;;;;5105319;28;20241;-79
2020/12/08 00:34:16;;;;;;;2.77;2.03;;;2.20;99.90;;;;;;5105293;28;20184;-79
2020/12/08 00:36:41;;;;;;;2.77;2.10;;;2.20;99.90;;;;;;5106592;28;20665;-79
2020/12/08 00:39:07;;;;;;;3.33;2.37;;;2.20;99.90;;;;;;5105217;28;20208;-79
2020/12/08 00:41:32;;;;;;;4.10;2.63;;;2.20;99.90;;;;;;5106535;28;20286;-78
2020/12/08 00:43:58;;;;;;;2.50;2.20;;;2.20;99.90;;;;;;5105323;28;20265;-79
2020/12/08 00:46:23;;;;;;;3.50;2.00;;;2.20;99.90;;;;;;5105388;28;20184;-79
2020/12/08 00:48:49;;;;;;;3.90;2.60;;;2.20;99.90;;;;;;5105588;28;20222;-79
2020/12/08 00:51:15;;;;;;;3.47;2.43;;;2.30;99.90;;;;;;5105948;28;20203;-78
2020/12/08 00:53:41;;;;;;;2.90;2.47;;;2.20;99.90;;;;;;5107813;28;20242;-79
2020/12/08 00:56:13;;;;;;;3.33;2.33;;;2.20;99.90;;;;;;5106130;28;20729;-81
2020/12/08 00:58:39;;;;;;;4.07;3.03;;;2.10;99.90;;;;;;5106002;28;20239;-77
2020/12/08 01:01:06;;;;;;;3.53;2.67;;;2.00;99.90;;;;;;5107639;28;20701;-81
2020/12/08 01:03:36;;;;;;;2.50;1.83;;;1.90;99.90;;;;;;5106221;28;20198;-79
2020/12/08 01:06:03;;;;;;;2.73;2.40;;;1.70;99.90;;;;;;5106347;28;20235;-79
2020/12/08 01:08:29;;;;;;;3.97;2.53;;;1.60;99.90;;;;;;5123380;27;20200;-79
2020/12/08 01:10:55;;;;;;;2.67;1.97;;;1.60;99.90;;;;;;5105729;28;20673;-79
2020/12/08 01:13:21;;;;;;;2.00;1.83;;;1.50;99.90;;;;;;5107742;28;20223;-81
2020/12/08 01:15:47;;;;;;;2.90;2.00;;;1.40;99.90;;;;;;5106654;28;20192;-78
2020/12/08 01:18:14;;;;;;;3.30;2.30;;;1.30;99.90;;;;;;5106123;28;20190;-77
2020/12/08 01:20:39;;;;;;;2.93;2.07;;;1.30;99.90;;;;;;5106061;28;20208;-80
2020/12/08 01:23:06;;;;;;;2.80;2.33;;;1.20;99.90;;;;;;5107961;28;20680;-80
2020/12/08 01:25:32;;;;;;;3.50;2.67;;;1.10;99.90;;;;;;5107261;28;20188;-81
2020/12/08 01:27:59;;;;;;;2.97;2.20;;;1.10;99.90;;;;;;5108683;28;20180;-79
2020/12/08 01:30:24;;;;;;;2.57;2.37;;;1.20;99.90;;;;;;5107653;28;20208;-80
2020/12/08 01:32:50;;;;;;;2.57;2.03;;;1.40;99.90;;;;;;5108179;28;20345;-81
2020/12/08 01:35:18;;;;;;;4.17;2.70;;;1.60;99.90;;;;;;5107262;28;20195;-82
2020/12/08 01:37:45;;;;;;;3.73;2.63;;;1.70;99.90;;;;;;5107477;28;20192;-82
2020/12/08 01:40:10;;;;;;;2.97;2.30;;;1.90;99.90;;;;;;5107593;28;20220;-82
2020/12/08 01:42:36;;;;;;;3.50;2.57;;;2.10;99.90;;;;;;5124219;27;20203;-81
2020/12/08 01:45:03;;;;;;;3.60;2.37;;;2.10;99.90;;;;;;5109028;28;20184;-80
2020/12/08 01:47:28;;;;;;;3.10;2.80;;;2.20;99.90;;;;;;5108255;28;20188;-77
2020/12/08 01:49:54;;;;;;;3.27;2.73;;;2.30;99.90;;;;;;5107014;28;20231;-79
2020/12/08 01:52:20;;;;;;;4.00;2.90;;;2.30;99.90;;;;;;5108532;28;20271;-79
2020/12/08 01:54:48;;;;;;;4.50;3.27;;;2.40;99.90;;;;;;5108538;28;20666;-79
2020/12/08 01:57:13;;;;;;;3.03;2.17;;;2.30;99.90;;;;;;5106388;28;20215;-80
2020/12/08 01:59:39;;;;;;;3.03;2.60;;;2.30;99.90;;;;;;5108107;28;20568;-82
2020/12/08 02:02:05;;;;;;;3.87;2.97;;;2.30;99.90;;;;;;5108078;28;20187;-81
2020/12/08 02:04:31;;;;;;;3.97;2.87;;;2.30;99.90;;;;;;5108490;28;20560;-79
2020/12/08 02:06:57;;;;;;;3.73;2.73;;;2.20;99.90;;;;;;5107002;28;20184;-81
2020/12/08 02:09:22;;;;;;;5.03;3.30;;;2.20;99.90;;;;;;5108340;28;20629;-79
2020/12/08 02:11:48;;;;;;;3.33;2.70;;;2.30;99.90;;;;;;5106007;28;20199;-82
2020/12/08 02:14:14;;;;;;;3.63;2.97;;;2.30;99.90;;;;;;5106942;28;20537;-81
2020/12/08 02:16:40;;;;;;;2.67;2.47;;;2.30;99.90;;;;;;5108373;28;20182;-82
2020/12/08 02:19:05;;;;;;;4.23;3.13;;;2.30;99.90;;;;;;5108212;28;20215;-79
2020/12/08 02:21:33;;;;;;;3.73;2.93;;;2.30;99.90;;;;;;5106824;28;20236;-81
2020/12/08 02:23:59;;;;;;;4.60;3.43;;;2.20;99.90;;;;;;5107464;28;20855;-81
2020/12/08 02:26:25;;;;;;;4.30;2.73;;;2.10;99.90;;;;;;5107417;28;20271;-81
2020/12/08 02:28:52;;;;;;;4.00;2.67;;;2.00;99.90;;;;;;5106269;28;20873;-78
2020/12/08 02:31:18;;;;;;;4.37;3.17;;;1.80;99.90;;;;;;5105473;28;20262;-78
2020/12/08 02:33:43;;;;;;;4.23;2.83;;;1.70;99.90;;;;;;5106422;28;20755;-79
2020/12/08 02:36:09;;;;;;;3.97;3.40;;;1.60;99.90;;;;;;5107234;28;21262;-80
2020/12/08 02:38:35;;;;;;;5.77;2.93;;;1.60;99.90;;;;;;5107373;28;21113;-79
2020/12/08 02:41:01;;;;;;;3.53;2.33;;;1.50;99.90;;;;;;5105597;28;20263;-79
2020/12/08 02:43:26;;;;;;;3.40;2.90;;;1.40;99.90;;;;;;5105115;28;20275;-81
2020/12/08 02:45:52;;;;;;;3.63;3.00;;;1.40;99.90;;;;;;5106571;28;20191;-81
2020/12/08 02:48:18;;;;;;;3.87;3.17;;;1.30;99.90;;;;;;5106145;28;20196;-81
2020/12/08 02:50:43;;;;;;;3.23;2.73;;;1.30;99.90;;;;;;5121795;28;20253;-81
2020/12/08 02:53:09;;;;;;;3.40;2.37;;;1.40;99.90;;;;;;5106246;28;20188;-79
2020/12/08 02:55:35;;;;;;;3.87;2.97;;;1.40;99.90;;;;;;5105175;28;20272;-82
2020/12/08 02:58:00;;;;;;;4.73;3.50;;;1.50;99.90;;;;;;5106349;28;20661;-82
2020/12/08 03:00:26;;;;;;;4.17;2.70;;;1.50;99.90;;;;;;5105503;28;20211;-81
2020/12/08 03:02:52;;;;;;;2.47;1.70;;;1.50;99.90;;;;;;5106937;28;20177;-81
2020/12/08 03:05:18;;;;;;;4.17;3.10;;;1.60;99.90;;;;;;5107032;28;20188;-80
2020/12/08 03:07:43;;;;;;;3.33;2.50;;;1.60;99.90;;;;;;5107410;28;20242;-80
2020/12/08 03:10:09;;;;;;;3.93;3.13;;;1.60;99.90;;;;;;5105781;28;20223;-79
2020/12/08 03:12:35;;;;;;;3.77;3.00;;;1.60;99.90;;;;;;5106697;28;20192;-81
2020/12/08 03:15:05;;;;;;;4.73;3.13;;;1.70;99.90;;;;;;5105454;28;20192;-82
2020/12/08 03:17:34;;;;;;;5.00;3.57;;;1.70;99.90;;;;;;5105655;28;21037;-81
2020/12/08 03:19:59;;;;;;;3.20;2.40;;;1.70;99.90;;;;;;5104841;28;20216;-78
2020/12/08 03:22:25;;;;;;;3.90;3.00;;;1.70;99.90;;;;;;5105441;28;20195;-81
2020/12/08 03:24:51;;;;;;;3.47;2.20;;;1.70;99.90;;;;;;5108295;28;20180;-81
2020/12/08 03:27:17;;;;;;;3.60;2.93;;;1.70;99.90;;;;;;5108884;28;20245;-80
2020/12/08 03:29:43;;;;;;;3.83;2.90;;;1.70;99.90;;;;;;5110248;28;20215;-81
2020/12/08 03:32:09;;;;;;;3.73;3.23;;;1.70;99.90;;;;;;5109281;28;20196;-80
2020/12/08 03:34:35;;;;;;;3.80;3.17;;;1.70;99.90;;;;;;5108425;28;20192;-80
2020/12/08 03:37:00;;;;;;;4.17;2.97;;;1.70;99.90;;;;;;5108558;28;20303;-78
2020/12/08 03:39:26;;;;;;;4.37;3.27;;;1.70;99.90;;;;;;5109950;28;20689;-81
2020/12/08 03:41:59;;;;;;;6.33;3.33;;;1.80;99.90;;;;;;5109610;28;20200;-79
2020/12/08 03:44:28;;;;;;;3.63;2.97;;;1.80;99.90;;;;;;5106757;28;20207;-81
2020/12/08 03:46:55;;;;;;;6.97;4.13;;;1.80;99.90;;;;;;5106951;28;20192;-81
2020/12/08 03:49:26;;;;;;;3.50;2.60;;;1.90;99.90;;;;;;5108679;28;20609;-80
2020/12/08 03:51:52;;;;;;;3.80;3.40;;;1.90;99.90;;;;;;5107187;28;20660;-80
2020/12/08 03:54:17;;;;;;;5.53;3.93;;;1.90;99.90;;;;;;5107279;28;20564;-81
2020/12/08 03:56:45;;;;;;;3.97;3.13;;;1.90;99.90;;;;;;5108509;28;20188;-80
2020/12/08 03:59:16;;;;;;;4.47;3.43;;;1.90;99.90;;;;;;5106748;28;20223;-81
2020/12/08 04:01:46;;;;;;;4.17;3.70;;;2.00;99.90;;;;;;5106227;28;20176;-80
2020/12/08 04:04:12;;;;;;;4.07;3.37;;;2.00;99.90;;;;;;5108227;28;20187;-80
2020/12/08 04:06:38;;;;;;;6.13;3.37;;;2.00;99.90;;;;;;5108642;28;20180;-81
2020/12/08 04:09:04;;;;;;;6.20;3.83;;;2.00;99.90;;;;;;5108504;27;20207;-80
2020/12/08 04:11:30;;;;;;;3.70;2.73;;;2.00;99.90;;;;;;5108371;28;20678;-81
2020/12/08 04:13:56;;;;;;;4.47;3.47;;;2.00;99.90;;;;;;5106794;28;20556;-80
2020/12/08 04:16:21;;;;;;;3.43;3.07;;;2.10;99.90;;;;;;5106554;28;20198;-80
2020/12/08 04:18:47;;;;;;;5.90;3.57;;;2.10;99.90;;;;;;5106520;28;20216;-81
2020/12/08 04:21:20;;;;;;;5.10;3.37;;;2.10;99.90;;;;;;5106511;28;20187;-81
2020/12/08 04:23:45;;;;;;;4.67;3.63;;;2.10;99.90;;;;;;5107700;28;20180;-80
2020/12/08 04:26:11;;;;;;;5.33;3.33;;;2.10;99.90;;;;;;5107562;28;20180;-79
2020/12/08 04:28:37;;;;;;;4.63;3.80;;;2.20;99.90;;;;;;5107856;28;20188;-81
2020/12/08 04:31:02;;;;;;;4.67;4.20;;;2.20;99.90;;;;;;5108306;28;21276;-81
2020/12/08 04:33:28;;;;;;;4.37;3.93;;;2.20;99.90;;;;;;5108285;28;20192;-80
2020/12/08 04:35:53;;;;;;;4.63;3.83;;;2.30;99.90;;;;;;5106063;28;20676;-80
2020/12/08 04:38:20;;;;;;;4.63;3.70;;;2.30;99.90;;;;;;5106121;28;20736;-80
2020/12/08 04:40:48;;;;;;;4.87;3.20;;;2.30;99.90;;;;;;5105834;28;20307;-81
2020/12/08 04:43:15;;;;;;;4.23;3.43;;;2.30;99.90;;;;;;5106296;28;20184;-79
2020/12/08 04:45:41;;;;;;;4.03;2.80;;;2.30;99.90;;;;;;5106105;28;20257;-81
2020/12/08 04:48:06;;;;;;;5.00;4.00;;;2.30;99.90;;;;;;5106132;28;20650;-79
2020/12/08 04:50:33;;;;;;;4.67;3.60;;;2.40;99.90;;;;;;5105661;28;20703;-80
2020/12/08 04:52:59;;;;;;;4.50;3.73;;;2.40;99.90;;;;;;5106218;28;20192;-81
2020/12/08 04:55:25;;;;;;;5.87;3.50;;;2.40;99.90;;;;;;5106257;28;20605;-81
2020/12/08 04:57:53;;;;;;;4.30;3.40;;;2.40;99.90;;;;;;5122747;27;20604;-78
2020/12/08 05:00:18;;;;;;;6.57;3.87;;;2.50;99.90;;;;;;5105403;28;20399;-80
2020/12/08 05:02:53;;;;;;;4.23;3.73;;;2.50;99.90;;;;;;5106009;28;20257;-81
2020/12/08 05:05:19;;;;;;;4.30;3.37;;;2.50;99.90;;;;;;5105276;28;20210;-81
2020/12/08 05:07:46;;;;;;;4.90;3.63;;;2.50;99.90;;;;;;5105768;28;20213;-81
2020/12/08 05:10:13;;;;;;;4.57;3.97;;;2.50;99.90;;;;;;5105816;28;20208;-79
2020/12/08 05:12:38;;;;;;;5.53;3.83;;;2.50;99.90;;;;;;5105235;28;20244;-80
2020/12/08 05:15:14;;;;;;;5.40;4.10;;;2.50;99.90;;;;;;5107158;28;20184;-80
2020/12/08 05:17:39;;;;;;;4.40;3.40;;;2.50;99.90;;;;;;5106890;28;20188;-79
2020/12/08 05:20:10;;;;;;;4.60;4.00;;;2.40;99.90;;;;;;5104941;28;20760;-79
2020/12/08 05:22:36;;;;;;;5.23;4.03;;;2.40;99.90;;;;;;5104506;28;20594;-79
2020/12/08 05:25:18;;;;;;;4.67;3.73;;;2.40;99.90;;;;;;5121791;27;20237;-78
2020/12/08 05:27:51;;;;;;;4.37;3.30;;;2.40;99.90;;;;;;5104545;28;20193;-78
2020/12/08 05:30:16;;;;;;;4.50;3.27;;;2.40;99.90;;;;;;5104289;28;20212;-78
2020/12/08 05:32:43;;;;;;;5.07;3.57;;;2.50;99.90;;;;;;5103911;28;20645;-79
2020/12/08 05:35:11;;;;;;;3.67;3.00;;;2.50;99.90;;;;;;5105466;28;20358;-80
2020/12/08 05:37:38;;;;;;;4.23;3.53;;;2.50;99.90;;;;;;5121331;27;20215;-78
2020/12/08 05:40:16;;;;;;;4.63;3.13;;;2.50;99.90;;;;;;5103840;28;20330;-79
2020/12/08 05:42:44;;;;;;;4.17;3.43;;;2.50;99.90;;;;;;5103712;28;20192;-79
2020/12/08 05:45:11;;;;;;;3.80;3.30;;;2.50;99.90;;;;;;5105352;28;20204;-79
2020/12/08 05:47:54;;;;;;;4.27;3.60;;;2.50;99.90;;;;;;5103277;28;20199;-80
2020/12/08 05:50:22;;;;;;;5.23;2.83;;;2.50;99.90;;;;;;5103704;28;20200;-78
2020/12/08 05:52:48;;;;;;;4.47;3.63;;;2.40;99.90;;;;;;5103203;28;20199;-80
2020/12/08 05:55:17;;;;;;;4.27;3.73;;;2.50;99.90;;;;;;5104254;28;20219;-80
2020/12/08 05:57:43;;;;;;;4.03;3.27;;;2.40;99.90;;;;;;5105420;28;20186;-80
2020/12/08 06:00:22;;;;;;;4.10;3.27;;;2.40;99.90;;;;;;5105071;28;20978;-80
2020/12/08 06:02:48;;;;;;;4.13;3.37;;;2.40;99.90;;;;;;5104548;28;20834;-80
2020/12/08 06:05:28;;;;;;;3.67;2.63;;;2.40;99.90;;;;;;5106356;28;20667;-80
2020/12/08 06:07:54;;;;;;;4.07;3.33;;;2.50;99.90;;;;;;5104968;28;20867;-81
2020/12/08 06:10:19;;;;;;;4.10;3.17;;;2.50;99.90;;;;;;5104495;28;20249;-81
2020/12/08 06:12:59;;;;;;;6.27;3.70;;;2.50;99.90;;;;;;5105072;28;20237;-81
2020/12/08 06:15:26;;;;;;;4.37;3.17;;;2.50;99.90;;;;;;5106180;28;20180;-80
2020/12/08 06:17:53;;;;;;;3.10;2.80;;;2.50;99.90;;;;;;5106054;28;20191;-79
2020/12/08 06:20:19;;;;;;;5.57;4.20;;;2.50;99.90;;;;;;5104274;28;20227;-80
2020/12/08 06:22:56;;;;;;;4.17;3.23;;;2.50;99.90;;;;;;5121413;28;20237;-80
2020/12/08 06:25:23;;;;;;;5.03;3.57;;;2.50;99.90;;;;;;5105434;28;20681;-78
2020/12/08 06:27:48;;;;;;;5.50;3.97;;;2.40;99.90;;;;;;5104705;28;20206;-80
2020/12/08 06:30:20;;;;;;;4.47;3.03;;;2.40;99.90;;;;;;5107234;28;20678;-80
2020/12/08 06:32:46;;;;;;;4.27;3.20;;;2.40;99.90;;;;;;5105152;28;20187;-80
2020/12/08 06:35:15;;;;;;;4.33;3.53;;;2.40;99.90;;;;;;5105918;28;20186;-80
2020/12/08 06:37:52;;;;;;;3.33;2.80;;;2.40;99.90;;;;;;5121891;28;20195;-80
2020/12/08 06:40:21;;;;;;;4.00;2.93;;;2.30;99.90;;;;;;5104587;28;20223;-80
2020/12/08 06:42:47;;;;;;;3.67;2.67;;;2.30;99.90;;;;;;5122413;28;20195;-81
2020/12/08 06:45:24;;;;;;;4.00;3.23;;;2.30;99.90;;;;;;5105111;28;20188;-77
2020/12/08 06:47:51;;;;;;;4.13;2.90;;;2.30;99.90;;;;;;5107112;28;20265;-76
2020/12/08 06:50:27;;;;;;;5.53;3.70;;;2.30;99.90;;;;;;5102602;28;20219;-75
2020/12/08 06:52:58;;;;;;;5.60;3.47;;;2.30;99.90;;;;;;5103872;28;20606;-74
2020/12/08 06:55:25;;;;;;;4.23;2.97;;;2.30;99.90;;;;;;5105594;28;20328;-76
2020/12/08 06:57:51;;;;;;;5.07;3.63;;;2.30;99.90;;;;;;5106616;28;20672;-77
2020/12/08 07:00:17;;;;;;;4.40;4.00;;;2.20;99.90;;;;;;5109792;28;20212;-77
2020/12/08 07:02:49;;;;;;;5.07;3.83;;;2.10;99.90;;;;;;5110684;28;20180;-80
2020/12/08 07:05:21;;;;;;;5.07;3.00;;;2.10;99.90;;;;;;5111630;28;20176;-77
2020/12/08 07:07:48;;;;;;;4.17;3.53;;;2.00;99.90;;;;;;5113246;28;20200;-77
2020/12/08 07:10:14;;;;;;;3.80;2.90;;;1.90;99.90;;;;;;5111037;28;20207;-79
2020/12/08 07:12:51;;;;;;;3.27;2.63;;;1.90;99.90;;;;;;5111368;28;20188;-77
2020/12/08 07:15:25;;;;;;;3.40;3.10;;;1.90;99.90;;;;;;5111190;28;20190;-79
2020/12/08 07:17:58;;;;;;;8.03;4.67;;;1.80;99.90;;;;;;5128553;27;20195;-80
2020/12/08 07:20:25;;;;;;;6.77;4.57;;;1.70;99.90;;;;;;5110833;28;20282;-79
2020/12/08 07:22:51;;;;;;;8.47;5.87;;;1.70;99.90;;;;;;5110633;28;20321;-80
2020/12/08 07:25:19;;;;;;;11.73;7.50;;;1.60;99.90;;;;;;5107658;27;20214;-79
2020/12/08 07:27:47;;;;;;;38.10;24.37;;;1.60;99.90;;;;;;5108548;28;20283;-80
2020/12/08 07:30:14;;;;;;;29.60;14.83;;;1.60;99.90;;;;;;5107306;28;20627;-78
2020/12/08 07:32:40;;;;;;;8.50;6.70;;;1.50;99.90;;;;;;5123743;27;20892;-80
2020/12/08 07:35:06;;;;;;;16.03;9.80;;;1.40;99.90;;;;;;5107700;28;20195;-81
2020/12/08 07:37:36;;;;;;;12.43;8.57;;;1.40;99.90;;;;;;5106996;28;20656;-79
2020/12/08 07:40:10;;;;;;;16.07;8.30;;;1.30;99.90;;;;;;5107978;28;20220;-78
2020/12/08 07:42:36;;;;;;;17.30;9.57;;;1.20;99.90;;;;;;5108442;28;20187;-79
2020/12/08 07:45:07;;;;;;;13.77;8.57;;;1.10;99.90;;;;;;5107314;28;20715;-79
2020/12/08 07:47:32;;;;;;;13.37;8.07;;;1.10;99.90;;;;;;5109705;28;20187;-78
2020/12/08 07:49:58;;;;;;;15.13;9.10;;;1.10;99.90;;;;;;5109499;28;20212;-78
2020/12/08 07:52:24;;;;;;;14.07;8.17;;;1.10;99.90;;;;;;5108046;28;20619;-80
2020/12/08 07:54:49;;;;;;;15.50;9.03;;;1.10;99.90;;;;;;5109489;28;20195;-79
2020/12/08 07:57:15;;;;;;;7.67;5.53;;;1.10;99.90;;;;;;5109496;28;20977;-78
2020/12/08 07:59:41;;;;;;;9.77;6.23;;;1.10;99.90;;;;;;5108011;28;20345;-79
2020/12/08 08:02:07;;;;;;;11.67;7.00;;;1.10;99.90;;;;;;5108275;28;20195;-79
2020/12/08 08:04:32;;;;;;;10.80;5.47;;;1.00;99.90;;;;;;5105159;28;20257;-77
2020/12/08 08:06:58;;;;;;;11.40;8.00;;;1.00;99.90;;;;;;5107789;28;20614;-79
2020/12/08 08:09:24;;;;;;;9.23;6.07;;;1.00;99.90;;;;;;5108519;28;20231;-78
2020/12/08 08:11:49;;;;;;;11.07;6.43;;;1.00;99.90;;;;;;5107414;28;20734;-78
2020/12/08 08:14:15;;;;;;;11.70;6.93;;;1.00;99.90;;;;;;5109137;28;20215;-79
2020/12/08 08:16:41;;;;;;;9.97;6.10;;;1.00;99.90;;;;;;5108103;28;20200;-79
2020/12/08 08:19:06;;;;;;;8.23;5.30;;;1.00;99.90;;;;;;5108949;28;20242;-78
2020/12/08 08:21:32;;;;;;;7.33;5.27;;;1.00;99.90;;;;;;5107443;28;20188;-79
2020/12/08 08:23:58;;;;;;;6.87;5.10;;;1.10;99.90;;;;;;5108024;28;20617;-79
2020/12/08 08:26:25;;;;;;;8.70;6.37;;;1.10;99.90;;;;;;5108991;28;20180;-78
2020/12/08 08:28:50;;;;;;;9.50;6.50;;;1.20;99.90;;;;;;5107491;28;20257;-79
2020/12/08 08:31:16;;;;;;;12.33;6.73;;;1.40;99.90;;;;;;5107334;28;20662;-78
2020/12/08 08:33:42;;;;;;;7.67;6.27;;;1.60;99.90;;;;;;5105555;28;20192;-79
2020/12/08 08:36:08;;;;;;;8.50;6.37;;;1.70;99.90;;;;;;5104624;28;20200;-78
2020/12/08 08:38:33;;;;;;;10.37;6.80;;;1.80;99.90;;;;;;5107344;28;20836;-79
2020/12/08 08:40:59;;;;;;;7.47;6.17;;;1.80;99.90;;;;;;5106771;28;20208;-79
2020/12/08 08:43:25;;;;;;;7.70;5.33;;;1.80;99.90;;;;;;5107724;28;20184;-78
2020/12/08 08:45:52;;;;;;;8.27;5.53;;;1.90;99.90;;;;;;5107637;28;20187;-79
2020/12/08 08:48:17;;;;;;;6.27;4.57;;;2.00;99.90;;;;;;5107813;28;20473;-78
2020/12/08 08:50:43;;;;;;;6.70;4.37;;;2.10;99.90;;;;;;5106749;28;21049;-78
2020/12/08 08:53:09;;;;;;;5.73;4.50;;;2.20;99.90;;;;;;5106783;28;20215;-78
2020/12/08 08:55:34;;;;;;;5.70;3.80;;;2.30;99.90;;;;;;5106361;28;20205;-79
2020/12/08 08:58:00;;;;;;;5.67;3.83;;;2.30;99.90;;;;;;5105297;28;20195;-78
2020/12/08 09:00:25;;;;;;;3.90;3.13;;;2.40;99.90;;;;;;5105029;28;20254;-78
2020/12/08 09:02:51;;;;;;;5.10;3.67;;;2.50;99.90;;;;;;5105260;28;20212;-80
2020/12/08 09:05:17;;;;;;;5.50;4.37;;;2.60;99.90;;;;;;5104950;28;20218;-78
2020/12/08 09:07:42;;;;;;;7.00;4.17;;;2.60;99.90;;;;;;5104481;28;20685;-79
2020/12/08 09:10:08;;;;;;;5.60;4.97;;;2.60;99.90;;;;;;5104982;28;20211;-78
2020/12/08 09:12:33;;;;;;;7.47;4.43;;;2.70;99.90;;;;;;5103629;28;20828;-79
2020/12/08 09:15:00;;;;;;;5.23;4.13;;;2.60;99.90;;;;;;5105846;28;20187;-78
2020/12/08 09:17:26;;;;;;;10.13;4.47;;;2.60;99.90;;;;;;5103839;28;20192;-78
2020/12/08 09:19:55;;;;;;;6.03;4.77;;;2.60;99.90;;;;;;5105772;28;20218;-80
2020/12/08 09:22:22;;;;;;;7.30;5.10;;;2.60;99.90;;;;;;5106319;28;20232;-76
2020/12/08 09:24:47;;;;;;;8.30;5.17;;;2.60;99.90;;;;;;5107578;28;20186;-77
2020/12/08 09:27:15;;;;;;;9.17;4.57;;;2.60;99.90;;;;;;5106703;28;20776;-78
2020/12/08 09:29:41;;;;;;;8.60;5.53;;;2.70;99.90;;;;;;5107800;28;20261;-77
2020/12/08 09:32:07;;;;;;;7.47;5.17;;;2.80;99.90;;;;;;5107296;28;20219;-79
2020/12/08 09:34:32;;;;;;;6.53;4.53;;;2.90;99.90;;;;;;5104074;28;20252;-79
2020/12/08 09:36:58;;;;;;;6.50;4.27;;;3.00;99.90;;;;;;5105559;28;20184;-79
2020/12/08 09:39:24;;;;;;;7.23;4.73;;;3.00;99.90;;;;;;5103969;28;20227;-81
2020/12/08 09:41:50;;;;;;;5.50;4.10;;;3.00;99.90;;;;;;5104267;28;20284;-79
2020/12/08 09:44:16;;;;;;;6.27;4.23;;;3.10;99.90;;;;;;5104105;28;20223;-79
2020/12/08 09:46:43;;;;;;;4.30;3.53;;;3.10;99.90;;;;;;5104266;28;20749;-78
2020/12/08 09:49:09;;;;;;;6.57;4.17;;;3.10;99.90;;;;;;5104258;28;20208;-78
2020/12/08 09:51:35;;;;;;;4.57;3.43;;;3.20;99.90;;;;;;5106045;28;20187;-78
2020/12/08 09:54:02;;;;;;;6.43;4.70;;;3.20;99.90;;;;;;5105435;28;20775;-80
2020/12/08 09:56:28;;;;;;;6.30;4.03;;;3.30;99.90;;;;;;5103954;28;20304;-78
2020/12/08 09:58:53;;;;;;;5.83;3.77;;;3.30;99.90;;;;;;5104028;28;20247;-79
2020/12/08 10:01:32;;;;;;;6.03;4.20;;;3.30;99.90;;;;;;5104410;28;20192;-80
2020/12/08 10:03:58;;;;;;;4.47;4.03;;;3.30;99.90;;;;;;5103910;28;20266;-79
2020/12/08 10:06:24;;;;;;;5.03;3.67;;;3.40;99.90;;;;;;5105032;28;20230;-78
2020/12/08 10:08:53;;;;;;;5.90;5.10;;;3.40;99.90;;;;;;5103341;28;20215;-79
2020/12/08 10:11:19;;;;;;;6.63;4.53;;;3.40;99.90;;;;;;5120896;28;20192;-78
2020/12/08 10:13:45;;;;;;;5.40;4.60;;;3.40;99.90;;;;;;5106529;28;20183;-81
2020/12/08 10:16:11;;;;;;;5.77;4.50;;;3.50;99.90;;;;;;5104188;28;20188;-80
2020/12/08 10:18:36;;;;;;;7.57;5.23;;;3.60;99.90;;;;;;5103500;28;20204;-78
2020/12/08 10:21:02;;;;;;;5.80;4.40;;;3.60;99.90;;;;;;5102051;28;20219;-80
2020/12/08 10:23:28;;;;;;;6.63;5.00;;;3.80;99.90;;;;;;5104196;28;20213;-76
2020/12/08 10:25:54;;;;;;;7.23;4.40;;;3.80;99.90;;;;;;5103450;28;20180;-74
2020/12/08 10:28:20;;;;;;;6.20;4.67;;;3.90;99.90;;;;;;5103648;28;20195;-77
2020/12/08 10:30:48;;;;;;;9.00;5.40;;;4.00;99.90;;;;;;5106766;28;20243;-76
2020/12/08 10:33:14;;;;;;;7.43;5.00;;;4.10;99.90;;;;;;5107822;28;20195;-75
2020/12/08 10:35:39;;;;;;;4.90;3.93;;;4.10;99.90;;;;;;5111036;28;20551;-77
2020/12/08 10:38:05;;;;;;;6.97;5.43;;;4.10;99.90;;;;;;5111575;28;20187;-77
2020/12/08 10:40:30;;;;;;;6.17;4.20;;;4.20;99.90;;;;;;5111519;28;20766;-76
2020/12/08 10:42:56;;;;;;;4.10;3.67;;;4.20;99.90;;;;;;5109595;28;20206;-77
2020/12/08 10:45:21;;;;;;;7.50;5.63;;;4.20;99.90;;;;;;5107143;28;20180;-74
2020/12/08 10:47:47;;;;;;;7.53;4.70;;;4.20;99.90;;;;;;5108436;28;20185;-79
2020/12/08 10:50:12;;;;;;;5.27;4.07;;;4.30;99.90;;;;;;5109797;28;20211;-77
2020/12/08 10:52:38;;;;;;;6.33;4.50;;;4.30;99.90;;;;;;5108562;28;20241;-77
2020/12/08 10:55:05;;;;;;;7.13;4.73;;;4.40;99.90;;;;;;5108379;28;20210;-77
2020/12/08 10:57:30;;;;;;;6.77;5.03;;;4.40;99.90;;;;;;5109687;28;20223;-79
2020/12/08 10:59:57;;;;;;;6.07;4.87;;;4.50;99.90;;;;;;5108146;28;20874;-78
2020/12/08 11:02:23;;;;;;;8.03;5.87;;;4.40;99.90;;;;;;5110799;28;20172;-78
2020/12/08 11:04:48;;;;;;;8.03;5.87;;;4.40;99.90;;;;;;5108820;28;20232;-78
2020/12/08 11:07:14;;;;;;;7.50;5.90;;;4.50;99.90;;;;;;5107939;28;20287;-79
2020/12/08 11:09:39;;;;;;;5.80;4.80;;;4.50;99.90;;;;;;5109982;28;20207;-78
2020/12/08 11:12:05;;;;;;;4.77;3.73;;;4.50;99.90;;;;;;5108576;28;20697;-80
2020/12/08 11:14:31;;;;;;;6.07;4.93;;;4.50;99.90;;;;;;5108875;28;20195;-78
2020/12/08 11:16:58;;;;;;;5.90;4.40;;;4.60;99.90;;;;;;5107520;28;20220;-78
2020/12/08 11:19:24;;;;;;;8.90;6.33;;;4.60;99.90;;;;;;5108426;28;20215;-78
2020/12/08 11:21:49;;;;;;;7.23;5.17;;;4.60;99.90;;;;;;5107248;27;20211;-77
2020/12/08 11:24:15;;;;;;;6.57;4.83;;;4.60;99.90;;;;;;5108662;28;20176;-78
2020/12/08 11:26:44;;;;;;;6.30;5.00;;;4.70;99.90;;;;;;5106665;28;20188;-79
2020/12/08 11:29:10;;;;;;;6.77;5.07;;;4.70;99.90;;;;;;5107781;28;20214;-78
2020/12/08 11:31:35;;;;;;;7.90;5.80;;;4.70;99.90;;;;;;5108237;28;20187;-77
2020/12/08 11:34:01;;;;;;;7.43;6.03;;;4.70;99.90;;;;;;5108101;28;20196;-78
2020/12/08 11:36:26;;;;;;;7.17;4.70;;;4.70;99.90;;;;;;5106351;28;20284;-78
2020/12/08 11:38:52;;;;;;;6.13;4.63;;;4.70;99.90;;;;;;5107273;28;20588;-78
2020/12/08 11:41:17;;;;;;;6.20;4.50;;;4.80;99.90;;;;;;5107229;28;21076;-78
2020/12/08 11:43:44;;;;;;;6.80;4.40;;;4.90;99.90;;;;;;5108375;28;20173;-80
2020/12/08 11:46:11;;;;;;;7.27;6.00;;;4.80;99.90;;;;;;5106410;28;20211;-77
2020/12/08 11:48:37;;;;;;;10.07;7.03;;;4.80;99.90;;;;;;5109496;28;20187;-79
2020/12/08 11:51:03;;;;;;;7.17;5.23;;;4.90;99.90;;;;;;5124215;27;20184;-79
2020/12/08 11:53:28;;;;;;;7.57;6.60;;;4.90;99.90;;;;;;5107295;28;20188;-79
2020/12/08 11:55:54;;;;;;;6.37;4.60;;;4.90;99.90;;;;;;5107102;28;20184;-80
2020/12/08 11:58:20;;;;;;;7.80;5.20;;;4.90;99.90;;;;;;5106861;28;20188;-79
2020/12/08 12:00:45;;;;;;;6.17;5.17;;;5.00;99.90;;;;;;5107221;28;20212;-79
2020/12/08 12:03:11;;;;;;;6.23;5.47;;;5.00;99.90;;;;;;5106634;28;20195;-78
2020/12/08 12:05:37;;;;;;;6.73;5.40;;;5.00;99.90;;;;;;5107702;28;20183;-78
2020/12/08 12:08:04;;;;;;;6.07;4.33;;;5.00;99.90;;;;;;5108693;28;20192;-78
2020/12/08 12:10:29;;;;;;;6.33;4.90;;;5.00;99.90;;;;;;5106797;28;20233;-80
2020/12/08 12:12:55;;;;;;;11.43;7.50;;;5.00;99.90;;;;;;5105972;28;20184;-77
2020/12/08 12:15:20;;;;;;;7.33;5.27;;;5.00;99.90;;;;;;5107537;28;20169;-78
2020/12/08 12:17:46;;;;;;;8.93;5.43;;;5.00;99.90;;;;;;5106827;28;20184;-78
2020/12/08 12:20:12;;;;;;;7.87;5.10;;;5.10;99.90;;;;;;5105905;28;20214;-79
2020/12/08 12:22:38;;;;;;;13.13;8.13;;;5.00;99.90;;;;;;5107351;28;20179;-78
2020/12/08 12:25:05;;;;;;;8.47;5.57;;;5.00;99.90;;;;;;5106287;28;20191;-78
2020/12/08 12:27:31;;;;;;;7.80;5.23;;;5.00;99.90;;;;;;5108029;28;20207;-78
2020/12/08 12:29:57;;;;;;;7.03;5.07;;;5.10;99.90;;;;;;5106286;28;20697;-78
2020/12/08 12:32:23;;;;;;;6.20;4.87;;;5.10;99.90;;;;;;5108160;28;20185;-78
2020/12/08 12:34:48;;;;;;;9.20;6.23;;;5.10;99.90;;;;;;5106039;28;20183;-79
2020/12/08 12:37:14;;;;;;;8.00;5.27;;;5.20;99.90;;;;;;5107362;28;20180;-79
2020/12/08 12:39:40;;;;;;;12.63;8.57;;;5.20;99.90;;;;;;5107169;28;20216;-77
2020/12/08 12:42:06;;;;;;;11.43;8.60;;;5.10;99.90;;;;;;5105902;28;20176;-78
2020/12/08 12:44:32;;;;;;;10.23;6.93;;;5.20;99.90;;;;;;5105924;28;20298;-78
2020/12/08 12:46:57;;;;;;;8.57;6.83;;;5.20;99.90;;;;;;5106226;28;20180;-77
2020/12/08 12:49:23;;;;;;;6.83;4.50;;;5.20;99.90;;;;;;5105639;28;20555;-77
2020/12/08 12:51:49;;;;;;;7.67;5.23;;;5.20;99.90;;;;;;5106481;28;20245;-79